Time,TemperatureF,DewpointF,PressureIn,WindDirection,WindDirectionDegrees,WindSpeedMPH,WindSpeedGustMPH,Humidity,HourlyPrecipIn,Conditions,Clouds,dailyrainin,SolarRadiationWatts/m^2,SoftwareType,DateUTC
2013-04-28 00:00:00,61.6,61.0,30.04,WNW,287,2.0,3.0,98,0.00,CLR,,0.00,0.0,WeatherDisplay:10.37,2013-04-27 14:00:00,
2013-04-28 00:05:00,62.2,61.7,30.04,NNW,333,0.0,3.0,98,0.00,CLR,,0.00,0.0,WeatherDisplay:10.37,2013-04-27 14:05:00,
2013-04-28 00:10:00,62.1,61.5,30.04,NE,44,0.0,0.0,98,0.00,CLR,,0.00,0.0,WeatherDisplay:10.37,2013-04-27 14:10:00,
2013-04-28 00:15:00,62.2,61.7,30.04,NNE,30,0.0,0.0,98,0.00,CLR,,0.00,0.0,WeatherDisplay:10.37,2013-04-27 14:15:00,
2013-04-28 00:25:00,61.2,60.6,30.04,SE,144,0.0,3.0,98,0.00,CLR,,0.00,0.0,WeatherDisplay:10.37,2013-04-27 14:25:00,
2013-04-28 00:30:00,61.4,60.8,30.04,SSE,154,0.0,1.0,98,0.00,CLR,,0.00,0.0,WeatherDisplay:10.37,2013-04-27 14:30:00,
2013-04-28 00:35:00,61.3,60.8,30.04,ESE,105,0.0,0.0,98,0.00,CLR,,0.00,0.0,WeatherDisplay:10.37,2013-04-27 14:35:00,
2013-04-28 00:40:00,61.2,60.6,30.04,SE,131,0.0,5.0,98,0.00,CLR,,0.00,0.0,WeatherDisplay:10.37,2013-04-27 14:40:00,
2013-04-28 00:45:00,61.3,60.8,30.04,South,176,0.0,0.0,98,0.00,CLR,,0.00,0.0,WeatherDisplay:10.37,2013-04-27 14:45:00,
2013-04-28 00:50:00,61.2,60.6,30.04,South,180,0.0,0.0,98,0.00,CLR,,0.00,0.0,WeatherDisplay:10.37,2013-04-27 14:50:00,
2013-04-28 00:55:00,61.0,60.4,30.03,South,180,0.0,1.0,98,0.00,CLR,,0.00,0.0,WeatherDisplay:10.37,2013-04-27 14:55:00,
2013-04-28 01:00:00,60.9,60.3,30.03,South,180,0.0,0.0,98,0.00,CLR,,0.00,0.0,WeatherDisplay:10.37,2013-04-27 15:00:00,
2013-04-28 01:05:00,60.8,60.2,30.03,SSE,156,0.0,0.0,98,0.00,CLR,,0.00,0.0,WeatherDisplay:10.37,2013-04-27 15:05:00,
2013-04-28 01:10:00,60.8,60.2,30.03,NNE,22,0.0,0.0,98,0.00,CLR,,0.00,0.0,WeatherDisplay:10.37,2013-04-27 15:10:00,
2013-04-28 01:15:00,60.6,60.4,30.03,NW,305,0.0,1.0,99,0.00,CLR,,0.00,0.0,WeatherDisplay:10.37,2013-04-27 15:15:00,
2013-04-28 01:20:00,60.4,60.2,30.03,NW,325,0.0,0.0,99,0.00,CLR,,0.00,0.0,WeatherDisplay:10.37,2013-04-27 15:20:00,
2013-04-28 01:25:00,60.8,60.2,30.03,West,270,0.0,0.0,98,0.00,CLR,,0.00,0.0,WeatherDisplay:10.37,2013-04-27 15:25:00,
2013-04-28 01:30:00,60.6,60.3,30.03,West,270,0.0,0.0,99,0.00,CLR,,0.00,0.0,WeatherDisplay:10.37,2013-04-27 15:30:00,
2013-04-28 01:35:00,60.6,60.3,30.02,WSW,256,1.0,2.0,99,0.00,CLR,,0.00,0.0,WeatherDisplay:10.37,2013-04-27 15:35:00,
2013-04-28 01:40:00,60.8,60.3,30.02,SW,235,0.0,3.0,98,0.00,CLR,,0.00,0.0,WeatherDisplay:10.37,2013-04-27 15:40:00,
2013-04-28 01:45:00,60.8,60.2,30.02,SW,228,0.0,0.0,98,0.00,CLR,,0.00,0.0,WeatherDisplay:10.37,2013-04-27 15:45:00,
2013-04-28 01:50:00,60.6,60.4,30.01,NW,309,0.0,0.0,99,0.00,CLR,,0.00,0.0,WeatherDisplay:10.37,2013-04-27 15:50:00,
2013-04-28 01:55:00,60.6,60.3,30.01,NNE,32,0.0,0.0,99,0.00,CLR,,0.00,0.0,WeatherDisplay:10.37,2013-04-27 15:55:00,
2013-04-28 02:00:00,60.8,60.2,30.01,NE,48,0.0,0.0,98,0.00,CLR,,0.00,0.0,WeatherDisplay:10.37,2013-04-27 16:00:00,
2013-04-28 02:05:00,60.8,60.2,30.01,ESE,104,0.0,0.0,98,0.00,CLR,,0.00,0.0,WeatherDisplay:10.37,2013-04-27 16:05:00,
2013-04-28 02:10:00,60.6,60.3,30.01,SE,135,0.0,0.0,99,0.00,CLR,,0.00,0.0,WeatherDisplay:10.37,2013-04-27 16:10:00,
2013-04-28 02:15:00,60.4,60.2,30.01,SE,135,0.0,2.0,99,0.00,CLR,,0.00,0.0,WeatherDisplay:10.37,2013-04-27 16:15:00,
2013-04-28 02:20:00,60.4,60.2,30.01,SE,128,0.0,0.0,99,0.00,CLR,,0.00,0.0,WeatherDisplay:10.37,2013-04-27 16:20:00,
2013-04-28 02:25:00,60.6,60.3,30.01,NNE,27,0.0,2.0,99,0.00,CLR,,0.00,0.0,WeatherDisplay:10.37,2013-04-27 16:25:00,
2013-04-28 02:30:00,60.4,60.2,30.01,North,0,1.0,2.0,99,0.00,CLR,,0.00,0.0,WeatherDisplay:10.37,2013-04-27 16:30:00,
2013-04-28 02:35:00,60.6,60.3,30.01,North,0,0.0,1.0,99,0.00,CLR,,0.00,0.0,WeatherDisplay:10.37,2013-04-27 16:35:00,
2013-04-28 02:40:00,60.4,60.1,30.01,NNE,26,1.0,3.0,99,0.00,CLR,,0.00,0.0,WeatherDisplay:10.37,2013-04-27 16:40:00,
2013-04-28 02:45:00,60.1,59.8,30.01,SSW,192,0.0,2.0,99,0.00,CLR,,0.00,0.0,WeatherDisplay:10.37,2013-04-27 16:45:00,
2013-04-28 02:50:00,60.1,59.8,30.01,SSW,207,0.0,0.0,99,0.00,CLR,,0.00,0.0,WeatherDisplay:10.37,2013-04-27 16:50:00,
2013-04-28 02:55:00,60.1,59.8,30.01,South,185,1.0,3.0,99,0.00,CLR,,0.00,0.0,WeatherDisplay:10.37,2013-04-27 16:55:00,
2013-04-28 03:00:00,60.3,60.0,30.01,South,169,0.0,3.0,99,0.00,CLR,,0.00,0.0,WeatherDisplay:10.37,2013-04-27 17:00:00,
2013-04-28 03:05:00,60.4,60.2,30.00,SE,138,0.0,2.0,99,0.00,CLR,,0.00,0.0,WeatherDisplay:10.37,2013-04-27 17:05:00,
2013-04-28 03:10:00,60.4,60.2,30.00,NE,46,0.0,2.0,99,0.00,CLR,,0.00,0.0,WeatherDisplay:10.37,2013-04-27 17:10:00,
2013-04-28 03:15:00,60.6,60.3,30.00,NE,34,0.0,1.0,99,0.00,CLR,,0.00,0.0,WeatherDisplay:10.37,2013-04-27 17:15:00,
2013-04-28 03:20:00,60.6,60.3,30.00,NNE,13,0.0,0.0,99,0.00,CLR,,0.00,0.0,WeatherDisplay:10.37,2013-04-27 17:20:00,
2013-04-28 03:25:00,60.4,60.2,30.01,North,3,0.0,0.0,99,0.00,CLR,,0.00,0.0,WeatherDisplay:10.37,2013-04-27 17:25:00,
2013-04-28 03:30:00,60.4,60.2,30.00,NNW,337,0.0,0.0,99,0.00,CLR,,0.00,0.0,WeatherDisplay:10.37,2013-04-27 17:30:00,
2013-04-28 03:35:00,60.1,59.8,30.01,NW,315,0.0,0.0,99,0.00,CLR,,0.00,0.0,WeatherDisplay:10.37,2013-04-27 17:35:00,
2013-04-28 03:40:00,60.4,60.2,30.00,NW,315,0.0,0.0,99,0.00,CLR,,0.00,0.0,WeatherDisplay:10.37,2013-04-27 17:40:00,
2013-04-28 03:45:00,60.4,60.2,30.00,NW,315,0.0,0.0,99,0.00,CLR,,0.00,0.0,WeatherDisplay:10.37,2013-04-27 17:45:00,
2013-04-28 03:50:00,60.3,60.0,30.01,WSW,257,0.0,0.0,99,0.00,CLR,,0.00,0.0,WeatherDisplay:10.37,2013-04-27 17:50:00,
2013-04-28 03:55:00,60.1,59.8,30.00,South,187,1.0,3.0,99,0.00,CLR,,0.00,0.0,WeatherDisplay:10.37,2013-04-27 17:55:00,
2013-04-28 04:00:00,59.9,59.6,30.00,South,169,0.0,3.0,99,0.00,CLR,,0.00,0.0,WeatherDisplay:10.37,2013-04-27 18:00:00,
2013-04-28 04:05:00,60.1,59.8,30.00,East,97,0.0,0.0,99,0.00,CLR,,0.00,0.0,WeatherDisplay:10.37,2013-04-27 18:05:00,
2013-04-28 04:10:00,59.9,59.6,30.00,North,11,0.0,0.0,99,0.00,CLR,,0.00,0.0,WeatherDisplay:10.37,2013-04-27 18:10:00,
2013-04-28 04:15:00,59.9,59.6,30.00,North,0,0.0,0.0,99,0.00,CLR,,0.00,0.0,WeatherDisplay:10.37,2013-04-27 18:15:00,
2013-04-28 04:20:00,59.9,59.6,30.00,West,265,0.0,0.0,99,0.00,CLR,,0.00,0.0,WeatherDisplay:10.37,2013-04-27 18:20:00,
2013-04-28 04:25:00,59.9,59.6,30.00,South,183,0.0,0.0,99,0.00,CLR,,0.00,0.0,WeatherDisplay:10.37,2013-04-27 18:25:00,
2013-04-28 04:30:00,59.7,59.4,30.00,South,180,0.0,0.0,99,0.00,CLR,,0.00,0.0,WeatherDisplay:10.37,2013-04-27 18:30:00,
2013-04-28 04:35:00,59.7,59.4,30.00,South,180,0.0,0.0,99,0.00,CLR,,0.00,0.0,WeatherDisplay:10.37,2013-04-27 18:35:00,
2013-04-28 04:40:00,59.7,59.4,30.00,SSE,165,0.0,2.0,99,0.00,CLR,,0.00,0.0,WeatherDisplay:10.37,2013-04-27 18:40:00,
2013-04-28 04:45:00,59.7,59.4,30.01,North,9,0.0,4.0,99,0.00,CLR,,0.00,0.0,WeatherDisplay:10.37,2013-04-27 18:45:00,
2013-04-28 04:50:00,59.7,59.4,30.01,NNE,19,0.0,2.0,99,0.00,CLR,,0.00,0.0,WeatherDisplay:10.37,2013-04-27 18:50:00,
2013-04-28 04:55:00,59.5,59.3,30.01,North,5,1.0,2.0,99,0.00,CLR,,0.00,0.0,WeatherDisplay:10.37,2013-04-27 18:55:00,
2013-04-28 05:00:00,59.5,59.2,30.01,NNW,342,0.0,2.0,99,0.00,CLR,,0.00,0.0,WeatherDisplay:10.37,2013-04-27 19:00:00,
2013-04-28 05:05:00,59.4,59.1,30.01,ESE,123,1.0,2.0,99,0.00,CLR,,0.00,0.0,WeatherDisplay:10.37,2013-04-27 19:05:00,
2013-04-28 05:10:00,59.4,59.1,30.01,East,91,0.0,1.0,99,0.00,CLR,,0.00,0.0,WeatherDisplay:10.37,2013-04-27 19:10:00,
2013-04-28 05:15:00,59.4,59.1,30.01,East,95,0.0,1.0,99,0.00,CLR,,0.00,0.0,WeatherDisplay:10.37,2013-04-27 19:15:00,
2013-04-28 05:20:00,59.2,58.9,30.01,South,184,0.0,0.0,99,0.00,CLR,,0.00,0.0,WeatherDisplay:10.37,2013-04-27 19:20:00,
2013-04-28 05:25:00,59.2,58.9,30.01,SW,225,0.0,2.0,99,0.00,CLR,,0.00,0.0,WeatherDisplay:10.37,2013-04-27 19:25:00,
2013-04-28 05:30:00,59.4,59.1,30.01,SSE,152,0.0,2.0,99,0.00,CLR,,0.00,0.0,WeatherDisplay:10.37,2013-04-27 19:30:00,
2013-04-28 05:35:00,59.2,58.9,30.01,East,95,0.0,1.0,99,0.00,CLR,,0.00,0.0,WeatherDisplay:10.37,2013-04-27 19:35:00,
2013-04-28 05:40:00,59.0,58.7,30.01,East,99,0.0,1.0,99,0.00,CLR,,0.00,0.0,WeatherDisplay:10.37,2013-04-27 19:40:00,
2013-04-28 05:45:00,59.0,58.7,30.01,ESE,122,0.0,0.0,99,0.00,CLR,,0.00,0.0,WeatherDisplay:10.37,2013-04-27 19:45:00,
2013-04-28 05:50:00,59.2,58.9,30.02,SE,135,0.0,0.0,99,0.00,CLR,,0.00,0.0,WeatherDisplay:10.37,2013-04-27 19:50:00,
2013-04-28 05:55:00,59.0,58.7,30.02,SE,135,0.0,0.0,99,0.00,CLR,,0.00,0.0,WeatherDisplay:10.37,2013-04-27 19:55:00,
2013-04-28 06:00:00,58.8,58.5,30.02,ESE,102,1.0,2.0,99,0.00,CLR,,0.00,0.0,WeatherDisplay:10.37,2013-04-27 20:00:00,
2013-04-28 06:10:00,58.8,58.5,30.03,North,0,0.0,2.0,99,0.00,CLR,,0.00,0.0,WeatherDisplay:10.37,2013-04-27 20:10:00,
2013-04-28 06:15:00,58.8,58.5,30.03,North,0,0.0,2.0,99,0.00,CLR,,0.00,0.0,WeatherDisplay:10.37,2013-04-27 20:15:00,
2013-04-28 06:20:00,58.6,58.4,30.03,North,0,0.0,2.0,99,0.00,CLR,,0.00,0.0,WeatherDisplay:10.37,2013-04-27 20:20:00,
2013-04-28 06:25:00,58.8,58.5,30.03,NNW,330,1.0,3.0,99,0.00,CLR,,0.00,0.0,WeatherDisplay:10.37,2013-04-27 20:25:00,
2013-04-28 06:30:00,58.6,58.4,30.03,NW,315,0.0,2.0,99,0.00,CLR,,0.00,0.7,WeatherDisplay:10.37,2013-04-27 20:30:00,
2013-04-28 06:35:00,58.6,58.4,30.03,NNW,328,1.0,2.0,99,0.00,CLR,,0.00,6.6,WeatherDisplay:10.37,2013-04-27 20:35:00,
2013-04-28 06:40:00,58.6,58.4,30.04,North,351,2.0,3.0,99,0.00,CLR,,0.00,12.7,WeatherDisplay:10.37,2013-04-27 20:40:00,
2013-04-28 06:45:00,58.6,58.4,30.04,NW,318,0.0,3.0,99,0.00,BKN,,0.00,23.5,WeatherDisplay:10.37,2013-04-27 20:45:00,
2013-04-28 06:50:00,59.2,59.0,30.04,WSW,254,0.0,2.0,99,0.00,BKN,,0.00,38.1,WeatherDisplay:10.37,2013-04-27 20:50:00,
2013-04-28 06:55:00,60.4,60.1,30.04,SW,225,2.0,5.0,99,0.00,BKN,,0.00,49.4,WeatherDisplay:10.37,2013-04-27 20:55:00,
2013-04-28 07:00:00,60.3,60.0,30.04,NE,40,0.0,5.0,99,0.00,BKN,,0.00,40.1,WeatherDisplay:10.37,2013-04-27 21:00:00,
2013-04-28 07:05:00,60.9,60.3,30.04,NW,312,0.0,2.0,98,0.00,BKN,,0.00,84.3,WeatherDisplay:10.37,2013-04-27 21:05:00,
2013-04-28 07:10:00,62.6,61.7,30.04,WNW,296,0.0,2.0,97,0.00,SCT,,0.00,108.4,WeatherDisplay:10.37,2013-04-27 21:10:00,
2013-04-28 07:15:00,64.2,63.6,30.04,North,359,0.0,1.0,98,0.00,CLR,,0.00,125.2,WeatherDisplay:10.37,2013-04-27 21:15:00,
2013-04-28 07:20:00,65.4,65.1,30.04,North,0,0.0,2.0,99,0.00,CLR,,0.00,142.0,WeatherDisplay:10.37,2013-04-27 21:20:00,
2013-04-28 07:25:00,66.1,65.8,30.04,NNE,20,2.0,3.0,99,0.00,CLR,,0.00,124.0,WeatherDisplay:10.37,2013-04-27 21:25:00,
2013-04-28 07:30:00,66.2,65.1,30.04,NE,40,0.0,2.0,96,0.00,CLR,,0.00,107.0,WeatherDisplay:10.37,2013-04-27 21:30:00,
2013-04-28 07:35:00,67.3,65.2,30.05,NNE,14,2.0,4.0,93,0.00,CLR,,0.00,90.0,WeatherDisplay:10.37,2013-04-27 21:35:00,
2013-04-28 07:40:00,67.9,64.9,30.05,North,351,2.0,3.0,90,0.00,CLR,,0.00,73.0,WeatherDisplay:10.37,2013-04-27 21:40:00,
2013-04-28 07:45:00,68.7,65.3,30.04,NW,326,0.0,3.0,89,0.00,CLR,,0.00,57.0,WeatherDisplay:10.37,2013-04-27 21:45:00,
2013-04-28 07:50:00,70.5,66.5,30.05,WNW,297,0.0,2.0,87,0.00,CLR,,0.00,42.0,WeatherDisplay:10.37,2013-04-27 21:50:00,
2013-04-28 07:55:00,72.4,66.6,30.05,NW,310,0.0,2.0,82,0.00,CLR,,0.00,27.0,WeatherDisplay:10.37,2013-04-27 21:55:00,
2013-04-28 08:00:00,73.6,67.1,30.05,NW,315,0.0,1.0,80,0.00,CLR,,0.00,12.0,WeatherDisplay:10.37,2013-04-27 22:00:00,
2013-04-28 08:05:00,75.7,67.5,30.05,WNW,287,1.0,2.0,76,0.00,OVC,,0.00,408.2,WeatherDisplay:10.37,2013-04-27 22:05:00,
2013-04-28 08:10:00,75.0,67.3,30.05,West,268,0.0,2.0,77,0.00,OVC,,0.00,427.5,WeatherDisplay:10.37,2013-04-27 22:10:00,
2013-04-28 08:15:00,76.2,67.7,30.05,WNW,302,1.0,2.0,75,0.00,OVC,,0.00,431.5,WeatherDisplay:10.37,2013-04-27 22:15:00,
2013-04-28 08:20:00,76.9,68.0,30.05,NW,321,1.0,3.0,74,0.00,OVC,,0.00,434.3,WeatherDisplay:10.37,2013-04-27 22:20:00,
2013-04-28 08:25:00,76.1,67.6,30.05,NW,313,1.0,3.0,75,0.00,OVC,,0.00,440.9,WeatherDisplay:10.37,2013-04-27 22:25:00,
2013-04-28 08:30:00,76.7,68.5,30.05,NNW,337,1.0,3.0,76,0.00,OVC,,0.00,462.1,WeatherDisplay:10.37,2013-04-27 22:30:00,
2013-04-28 08:35:00,78.3,69.3,30.05,North,356,0.0,2.0,74,0.00,OVC,,0.00,545.2,WeatherDisplay:10.37,2013-04-27 22:35:00,
2013-04-28 08:40:00,80.9,68.9,30.06,NNW,343,1.0,2.0,67,0.00,OVC,,0.00,604.3,WeatherDisplay:10.37,2013-04-27 22:40:00,
2013-04-28 08:45:00,82.0,68.6,30.06,NW,315,1.0,2.0,64,0.00,OVC,,0.00,266.5,WeatherDisplay:10.37,2013-04-27 22:45:00,
2013-04-28 08:50:00,81.3,66.6,30.06,NW,316,1.0,3.0,61,0.00,OVC,,0.00,634.2,WeatherDisplay:10.37,2013-04-27 22:50:00,
2013-04-28 08:55:00,82.0,67.7,30.06,NW,310,1.0,2.0,62,0.00,OVC,,0.00,555.6,WeatherDisplay:10.37,2013-04-27 22:55:00,
2013-04-28 09:00:00,82.0,66.8,30.06,SSW,199,3.0,6.0,60,0.00,OVC,,0.00,733.7,WeatherDisplay:10.37,2013-04-27 23:00:00,
2013-04-28 09:05:00,81.1,65.4,30.06,SSE,158,3.0,6.0,59,0.00,OVC,,0.00,796.7,WeatherDisplay:10.37,2013-04-27 23:05:00,
2013-04-28 09:10:00,79.3,64.7,30.06,SE,128,2.0,6.0,61,0.00,OVC,,0.00,806.9,WeatherDisplay:10.37,2013-04-27 23:10:00,
2013-04-28 09:15:00,78.5,64.9,30.07,SE,129,6.0,8.0,63,0.00,OVC,,0.00,848.9,WeatherDisplay:10.37,2013-04-27 23:15:00,
2013-04-28 09:20:00,78.4,65.2,30.07,SE,134,1.0,8.0,64,0.00,OVC,,0.00,924.2,WeatherDisplay:10.37,2013-04-27 23:20:00,
2013-04-28 09:30:00,78.1,64.5,30.07,SE,132,2.0,6.0,63,0.00,OVC,,0.00,380.4,WeatherDisplay:10.37,2013-04-27 23:30:00,
2013-04-28 09:35:00,77.4,64.3,30.07,SE,145,6.0,8.0,64,0.00,OVC,,0.00,385.3,WeatherDisplay:10.37,2013-04-27 23:35:00,
2013-04-28 09:40:00,76.6,64.9,30.07,SSE,153,6.0,8.0,67,0.00,OVC,,0.00,333.0,WeatherDisplay:10.37,2013-04-27 23:40:00,
2013-04-28 09:45:00,75.8,65.3,30.07,ESE,116,7.0,11.0,70,0.00,OVC,,0.00,251.6,WeatherDisplay:10.37,2013-04-27 23:45:00,
2013-04-28 09:50:00,75.2,65.1,30.07,East,100,8.0,11.0,71,0.00,OVC,,0.00,240.2,WeatherDisplay:10.37,2013-04-27 23:50:00,
2013-04-28 09:55:00,75.0,65.0,30.08,ESE,110,5.0,11.0,71,0.00,OVC,,0.00,180.3,WeatherDisplay:10.37,2013-04-27 23:55:00,
2013-04-28 10:00:00,74.5,64.4,30.07,ESE,106,8.0,12.0,71,0.00,OVC,,0.00,157.3,WeatherDisplay:10.37,2013-04-28 00:00:00,
2013-04-28 10:05:00,73.9,63.9,30.08,ESE,111,5.0,13.0,71,0.00,OVC,,0.00,297.0,WeatherDisplay:10.37,2013-04-28 00:05:00,
2013-04-28 10:10:00,75.2,65.9,30.07,ESE,122,5.0,11.0,73,0.00,OVC,,0.00,1285.8,WeatherDisplay:10.37,2013-04-28 00:10:00,
2013-04-28 10:15:00,77.0,66.0,30.07,SSE,148,7.0,12.0,69,0.00,OVC,,0.00,695.8,WeatherDisplay:10.37,2013-04-28 00:15:00,
2013-04-28 10:20:00,76.6,66.1,30.07,SSE,152,5.0,10.0,70,0.00,OVC,,0.00,731.5,WeatherDisplay:10.37,2013-04-28 00:20:00,
2013-04-28 10:25:00,77.4,66.0,30.07,SSE,158,7.0,9.0,68,0.00,OVC,,0.00,1135.3,WeatherDisplay:10.37,2013-04-28 00:25:00,
2013-04-28 10:30:00,77.5,66.1,30.07,SSE,163,8.0,13.0,68,0.00,OVC,,0.00,1136.8,WeatherDisplay:10.37,2013-04-28 00:30:00,
2013-04-28 10:35:00,77.6,65.8,30.06,South,171,6.0,13.0,67,0.00,OVC,,0.00,1167.8,WeatherDisplay:10.37,2013-04-28 00:35:00,
2013-04-28 10:40:00,78.5,65.8,30.06,SSE,154,7.0,13.0,65,0.00,OVC,,0.00,1219.3,WeatherDisplay:10.37,2013-04-28 00:40:00,
2013-04-28 10:45:00,78.4,65.7,30.06,SE,145,6.0,13.0,65,0.00,OVC,,0.00,1210.4,WeatherDisplay:10.37,2013-04-28 00:45:00,
2013-04-28 10:50:00,79.0,65.3,30.06,SE,135,7.0,13.0,63,0.00,OVC,,0.00,1217.3,WeatherDisplay:10.37,2013-04-28 00:50:00,
2013-04-28 10:55:00,79.2,65.0,30.05,SE,143,8.0,13.0,62,0.00,OVC,,0.00,1286.0,WeatherDisplay:10.37,2013-04-28 00:55:00,
2013-04-28 11:00:00,79.7,64.1,30.06,SSE,166,12.0,16.0,59,0.00,OVC,,0.00,1353.4,WeatherDisplay:10.37,2013-04-28 01:00:00,
2013-04-28 11:05:00,80.3,63.7,30.05,SSE,159,6.0,10.0,57,0.00,OVC,,0.00,1239.1,WeatherDisplay:10.37,2013-04-28 01:05:00,
2013-04-28 11:10:00,81.4,63.7,30.05,SE,129,3.0,9.0,55,0.00,OVC,,0.00,1621.2,WeatherDisplay:10.37,2013-04-28 01:10:00,
2013-04-28 11:15:00,81.0,63.8,30.04,SE,132,6.0,12.0,56,0.00,OVC,,0.00,1603.9,WeatherDisplay:10.37,2013-04-28 01:15:00,
2013-04-28 11:20:00,82.0,64.3,30.04,SE,136,9.0,15.0,55,0.00,OVC,,0.00,1640.8,WeatherDisplay:10.37,2013-04-28 01:20:00,
2013-04-28 11:25:00,81.9,63.6,30.04,SE,135,5.0,15.0,54,0.00,OVC,,0.00,1515.1,WeatherDisplay:10.37,2013-04-28 01:25:00,
2013-04-28 11:30:00,82.5,63.1,30.04,SE,134,8.0,14.0,52,0.00,OVC,,0.00,1564.5,WeatherDisplay:10.37,2013-04-28 01:30:00,
2013-04-28 11:35:00,82.0,62.1,30.03,ESE,122,9.0,17.0,51,0.00,OVC,,0.00,1471.8,WeatherDisplay:10.37,2013-04-28 01:35:00,
2013-04-28 11:40:00,82.0,61.5,30.03,ESE,117,13.0,17.0,50,0.00,OVC,,0.00,1461.7,WeatherDisplay:10.37,2013-04-28 01:40:00,
2013-04-28 11:45:00,82.0,62.1,30.03,ESE,109,13.0,17.0,51,0.00,OVC,,0.00,1538.2,WeatherDisplay:10.37,2013-04-28 01:45:00,
2013-04-28 11:50:00,82.0,62.7,30.03,ESE,116,10.0,20.0,52,0.00,OVC,,0.00,1206.7,WeatherDisplay:10.37,2013-04-28 01:50:00,
2013-04-28 11:55:00,82.0,62.7,30.03,SE,143,10.0,15.0,52,0.00,OVC,,0.00,890.1,WeatherDisplay:10.37,2013-04-28 01:55:00,
2013-04-28 12:00:00,80.3,62.2,30.02,SE,141,7.0,17.0,54,0.00,OVC,,0.00,1190.7,WeatherDisplay:10.37,2013-04-28 02:00:00,
2013-04-28 12:05:00,80.4,62.3,30.02,SE,137,7.0,15.0,54,0.00,OVC,,0.00,1418.7,WeatherDisplay:10.37,2013-04-28 02:05:00,
2013-04-28 12:10:00,82.4,63.6,30.02,SSE,149,8.0,16.0,53,0.00,OVC,,0.00,1283.2,WeatherDisplay:10.37,2013-04-28 02:10:00,
2013-04-28 12:15:00,82.2,61.7,30.02,SSE,151,6.0,18.0,50,0.00,OVC,,0.00,1185.4,WeatherDisplay:10.37,2013-04-28 02:15:00,
2013-04-28 12:20:00,82.4,61.9,30.02,ESE,123,9.0,16.0,50,0.00,OVC,,0.00,1416.1,WeatherDisplay:10.37,2013-04-28 02:20:00,
2013-04-28 12:25:00,81.9,62.0,30.01,ESE,115,10.0,13.0,51,0.00,OVC,,0.00,395.6,WeatherDisplay:10.37,2013-04-28 02:25:00,
2013-04-28 12:30:00,82.5,62.6,30.01,SE,136,8.0,13.0,51,0.00,OVC,,0.00,1393.9,WeatherDisplay:10.37,2013-04-28 02:30:00,
2013-04-28 12:35:00,82.5,62.0,30.01,SE,144,13.0,18.0,50,0.00,OVC,,0.00,1512.1,WeatherDisplay:10.37,2013-04-28 02:35:00,
2013-04-28 12:40:00,82.1,59.9,30.00,SSE,154,10.0,20.0,47,0.00,OVC,,0.00,1521.8,WeatherDisplay:10.37,2013-04-28 02:40:00,
2013-04-28 12:50:00,81.8,60.2,30.00,SE,140,12.0,20.0,48,0.00,OVC,,0.00,615.1,WeatherDisplay:10.37,2013-04-28 02:50:00,
2013-04-28 12:55:00,81.0,61.1,30.00,SE,137,9.0,15.0,51,0.00,OVC,,0.00,1014.8,WeatherDisplay:10.37,2013-04-28 02:55:00,
2013-04-28 13:00:00,82.3,61.8,30.00,SE,134,7.0,14.0,50,0.00,OVC,,0.00,1493.6,WeatherDisplay:10.37,2013-04-28 03:00:00,
2013-04-28 13:05:00,83.0,61.3,29.99,ESE,120,8.0,20.0,48,0.00,OVC,,0.00,1449.8,WeatherDisplay:10.37,2013-04-28 03:05:00,
2013-04-28 13:10:00,83.7,62.5,30.00,ESE,121,13.0,15.0,49,0.00,OVC,,0.00,1351.7,WeatherDisplay:10.37,2013-04-28 03:10:00,
2013-04-28 13:15:00,83.9,61.5,29.99,SE,129,7.0,13.0,47,0.00,OVC,,0.00,1403.7,WeatherDisplay:10.37,2013-04-28 03:15:00,
2013-04-28 13:20:00,84.2,61.8,29.99,SE,130,16.0,22.0,47,0.00,OVC,,0.00,1382.0,WeatherDisplay:10.37,2013-04-28 03:20:00,
2013-04-28 13:25:00,83.4,61.0,29.99,ESE,123,8.0,16.0,47,0.00,OVC,,0.00,1462.6,WeatherDisplay:10.37,2013-04-28 03:25:00,
2013-04-28 13:30:00,84.6,62.2,29.99,ESE,123,5.0,13.0,47,0.00,OVC,,0.00,805.9,WeatherDisplay:10.37,2013-04-28 03:30:00,
2013-04-28 13:35:00,84.8,61.7,29.98,ESE,120,8.0,15.0,46,0.00,OVC,,0.00,1403.2,WeatherDisplay:10.37,2013-04-28 03:35:00,
2013-04-28 13:40:00,85.3,61.5,29.98,SE,139,6.0,10.0,45,0.00,OVC,,0.00,1055.6,WeatherDisplay:10.37,2013-04-28 03:40:00,
2013-04-28 13:45:00,86.2,63.0,29.98,SE,138,9.0,14.0,46,0.00,OVC,,0.00,1401.8,WeatherDisplay:10.37,2013-04-28 03:45:00,
2013-04-28 13:50:00,85.2,61.4,29.98,SE,130,8.0,13.0,45,0.00,OVC,,0.00,1425.6,WeatherDisplay:10.37,2013-04-28 03:50:00,
2013-04-28 13:55:00,84.8,61.7,29.98,ESE,123,7.0,12.0,46,0.00,OVC,,0.00,1534.4,WeatherDisplay:10.37,2013-04-28 03:55:00,
2013-04-28 14:00:00,86.1,61.6,29.98,East,93,7.0,10.0,44,0.00,OVC,,0.00,367.0,WeatherDisplay:10.37,2013-04-28 04:00:00,
2013-04-28 14:05:00,82.7,61.0,29.98,ESE,106,6.0,11.0,48,0.00,OVC,,0.00,378.5,WeatherDisplay:10.37,2013-04-28 04:05:00,
2013-04-28 14:10:00,81.9,61.4,29.97,East,101,7.0,11.0,50,0.00,OVC,,0.00,1403.9,WeatherDisplay:10.37,2013-04-28 04:10:00,
2013-04-28 14:15:00,83.5,61.8,29.97,ENE,77,1.0,11.0,48,0.00,OVC,,0.00,1397.5,WeatherDisplay:10.37,2013-04-28 04:15:00,
2013-04-28 14:20:00,85.4,62.3,29.97,ESE,113,8.0,13.0,46,0.00,OVC,,0.00,1419.0,WeatherDisplay:10.37,2013-04-28 04:20:00,
2013-04-28 14:25:00,83.5,62.3,29.97,SE,139,9.0,14.0,49,0.00,OVC,,0.00,1386.7,WeatherDisplay:10.37,2013-04-28 04:25:00,
2013-04-28 14:30:00,83.1,63.7,29.96,SSE,149,12.0,20.0,52,0.00,OVC,,0.00,1337.6,WeatherDisplay:10.37,2013-04-28 04:30:00,
2013-04-28 14:35:00,83.4,63.4,29.97,SE,141,14.0,20.0,51,0.00,OVC,,0.00,1046.0,WeatherDisplay:10.37,2013-04-28 04:35:00,
2013-04-28 14:40:00,82.6,62.7,29.96,SSE,148,12.0,16.0,51,0.00,OVC,,0.00,737.1,WeatherDisplay:10.37,2013-04-28 04:40:00,
2013-04-28 14:45:00,81.7,62.9,29.97,SSE,161,7.0,15.0,53,0.00,OVC,,0.00,763.9,WeatherDisplay:10.37,2013-04-28 04:45:00,
2013-04-28 14:50:00,81.9,62.5,29.96,SE,139,10.0,15.0,52,0.00,OVC,,0.00,788.0,WeatherDisplay:10.37,2013-04-28 04:50:00,
2013-04-28 14:55:00,82.2,62.8,29.96,SE,143,14.0,17.0,52,0.00,OVC,,0.00,842.5,WeatherDisplay:10.37,2013-04-28 04:55:00,
2013-04-28 15:00:00,81.5,62.2,29.96,SSE,157,9.0,17.0,52,0.00,OVC,,0.00,412.0,WeatherDisplay:10.37,2013-04-28 05:00:00,
2013-04-28 15:05:00,81.0,62.2,29.96,SSE,152,12.0,15.0,53,0.00,OVC,,0.00,1286.8,WeatherDisplay:10.37,2013-04-28 05:05:00,
2013-04-28 15:10:00,81.7,62.3,29.96,SSE,154,8.0,15.0,52,0.00,OVC,,0.00,565.7,WeatherDisplay:10.37,2013-04-28 05:10:00,
2013-04-28 15:15:00,81.9,62.6,29.96,SE,135,12.0,16.0,52,0.00,OVC,,0.00,379.1,WeatherDisplay:10.37,2013-04-28 05:15:00,
2013-04-28 15:20:00,80.7,61.5,29.97,SE,140,10.0,17.0,52,0.00,OVC,,0.00,202.9,WeatherDisplay:10.37,2013-04-28 05:20:00,
2013-04-28 15:25:00,80.1,61.9,29.96,SE,146,8.0,16.0,54,0.00,OVC,,0.00,232.8,WeatherDisplay:10.37,2013-04-28 05:25:00,
2013-04-28 15:30:00,80.2,62.1,29.97,SE,137,6.0,9.0,54,0.00,OVC,,0.00,322.0,WeatherDisplay:10.37,2013-04-28 05:30:00,
2013-04-28 15:35:00,80.2,63.0,29.97,ESE,123,9.0,14.0,56,0.00,OVC,,0.00,283.1,WeatherDisplay:10.37,2013-04-28 05:35:00,
2013-04-28 15:45:00,80.1,62.4,29.97,SE,128,6.0,12.0,55,0.00,OVC,,0.00,315.1,WeatherDisplay:10.37,2013-04-28 05:45:00,
2013-04-28 15:55:00,80.1,62.4,29.97,SE,124,10.0,13.0,55,0.00,OVC,,0.00,314.7,WeatherDisplay:10.37,2013-04-28 05:55:00,
2013-04-28 16:00:00,79.9,62.3,29.97,SE,141,13.0,17.0,55,0.00,OVC,,0.00,287.5,WeatherDisplay:10.37,2013-04-28 06:00:00,
2013-04-28 16:05:00,79.4,61.8,29.97,SSE,149,10.0,17.0,55,0.00,OVC,,0.00,299.8,WeatherDisplay:10.37,2013-04-28 06:05:00,
2013-04-28 16:10:00,79.3,61.8,29.97,SSE,154,13.0,20.0,55,0.00,OVC,,0.00,319.0,WeatherDisplay:10.37,2013-04-28 06:10:00,
2013-04-28 16:15:00,79.2,61.1,29.97,SSE,158,9.0,17.0,54,0.00,OVC,,0.00,286.4,WeatherDisplay:10.37,2013-04-28 06:15:00,
2013-04-28 16:25:00,79.0,61.9,29.97,SSE,149,8.0,13.0,56,0.00,OVC,,0.00,232.2,WeatherDisplay:10.37,2013-04-28 06:25:00,
2013-04-28 16:35:00,78.6,62.1,29.98,SE,144,9.0,14.0,57,0.00,OVC,,0.00,187.6,WeatherDisplay:10.37,2013-04-28 06:35:00,
2013-04-28 16:40:00,78.6,62.6,29.98,SE,143,10.0,15.0,58,0.00,OVC,,0.00,181.4,WeatherDisplay:10.37,2013-04-28 06:40:00,
2013-04-28 16:55:00,77.7,61.8,29.98,SE,140,13.0,18.0,58,0.00,OVC,,0.00,128.5,WeatherDisplay:10.37,2013-04-28 06:55:00,
2013-04-28 17:00:00,77.5,61.6,29.98,SSE,147,9.0,16.0,58,0.00,CLR,,0.00,126.6,WeatherDisplay:10.37,2013-04-28 07:00:00,
2013-04-28 17:05:00,77.5,62.1,29.98,SE,145,6.0,13.0,59,0.00,CLR,,0.00,126.0,WeatherDisplay:10.37,2013-04-28 07:05:00,
2013-04-28 17:10:00,77.4,61.9,29.98,SE,141,7.0,13.0,59,0.00,CLR,,0.00,153.6,WeatherDisplay:10.37,2013-04-28 07:10:00,
2013-04-28 17:15:00,77.2,61.7,29.99,SE,144,9.0,13.0,59,0.00,CLR,,0.00,108.3,WeatherDisplay:10.37,2013-04-28 07:15:00,
2013-04-28 17:20:00,76.8,61.9,29.99,SSE,156,8.0,13.0,60,0.00,CLR,,0.00,91.7,WeatherDisplay:10.37,2013-04-28 07:20:00,
2013-04-28 17:25:00,76.6,61.7,29.99,SSE,150,9.0,13.0,60,0.00,CLR,,0.00,118.0,WeatherDisplay:10.37,2013-04-28 07:25:00,
2013-04-28 17:30:00,76.8,61.9,29.99,SSE,159,8.0,15.0,60,0.00,CLR,,0.00,108.2,WeatherDisplay:10.37,2013-04-28 07:30:00,
2013-04-28 17:35:00,76.9,62.0,29.99,SSE,168,6.0,12.0,60,0.00,CLR,,0.00,53.1,WeatherDisplay:10.37,2013-04-28 07:35:00,
2013-04-28 17:40:00,76.5,62.0,29.99,SSE,157,6.0,12.0,61,0.00,CLR,,0.00,33.1,WeatherDisplay:10.37,2013-04-28 07:40:00,
2013-04-28 17:45:00,76.2,61.8,29.99,SSE,150,9.0,12.0,61,0.00,CLR,,0.00,24.0,WeatherDisplay:10.37,2013-04-28 07:45:00,
2013-04-28 17:50:00,75.8,61.4,29.99,SE,145,7.0,12.0,61,0.00,CLR,,0.00,15.9,WeatherDisplay:10.37,2013-04-28 07:50:00,
2013-04-28 17:55:00,75.4,61.5,29.99,SE,137,5.0,11.0,62,0.00,CLR,,0.00,9.4,WeatherDisplay:10.37,2013-04-28 07:55:00,
2013-04-28 18:00:00,75.0,62.0,29.99,SE,143,5.0,9.0,64,0.00,CLR,,0.00,5.3,WeatherDisplay:10.37,2013-04-28 08:00:00,
2013-04-28 18:05:00,74.5,62.0,30.00,SSE,150,6.0,8.0,65,0.00,CLR,,0.00,1.0,WeatherDisplay:10.37,2013-04-28 08:05:00,
2013-04-28 18:10:00,73.9,61.4,30.00,SE,135,9.0,13.0,65,0.00,CLR,,0.00,0.0,WeatherDisplay:10.37,2013-04-28 08:10:00,
2013-04-28 18:15:00,73.8,61.3,30.00,SE,129,9.0,15.0,65,0.00,CLR,,0.00,0.0,WeatherDisplay:10.37,2013-04-28 08:15:00,
2013-04-28 18:20:00,73.6,61.6,30.00,SE,143,8.0,13.0,66,0.00,CLR,,0.00,0.0,WeatherDisplay:10.37,2013-04-28 08:20:00,
2013-04-28 18:25:00,73.4,61.3,30.00,SE,143,8.0,13.0,66,0.00,CLR,,0.00,0.0,WeatherDisplay:10.37,2013-04-28 08:25:00,
2013-04-28 18:30:00,73.2,61.6,30.00,SSE,149,6.0,10.0,67,0.00,CLR,,0.00,0.0,WeatherDisplay:10.37,2013-04-28 08:30:00,
2013-04-28 18:35:00,73.0,61.9,30.01,SSE,165,5.0,9.0,68,0.00,CLR,,0.00,0.0,WeatherDisplay:10.37,2013-04-28 08:35:00,
2013-04-28 18:40:00,72.7,61.9,30.01,SSE,153,6.0,8.0,69,0.00,CLR,,0.00,0.0,WeatherDisplay:10.37,2013-04-28 08:40:00,
2013-04-28 18:45:00,72.2,61.9,30.01,SSE,153,2.0,6.0,70,0.00,CLR,,0.00,0.0,WeatherDisplay:10.37,2013-04-28 08:45:00,
2013-04-28 18:50:00,71.6,61.7,30.01,South,173,3.0,6.0,71,0.00,CLR,,0.00,0.0,WeatherDisplay:10.37,2013-04-28 08:50:00,
2013-04-28 18:55:00,71.2,62.5,30.01,South,177,3.0,6.0,74,0.00,CLR,,0.00,0.0,WeatherDisplay:10.37,2013-04-28 08:55:00,
2013-04-28 19:00:00,71.2,62.5,30.02,SSE,160,2.0,6.0,74,0.00,CLR,,0.00,0.0,WeatherDisplay:10.37,2013-04-28 09:00:00,
2013-04-28 19:05:00,71.0,62.7,30.01,SSE,160,2.0,3.0,75,0.00,CLR,,0.00,0.0,WeatherDisplay:10.37,2013-04-28 09:05:00,
2013-04-28 19:10:00,70.7,62.8,30.02,SE,140,1.0,4.0,76,0.00,CLR,,0.00,0.0,WeatherDisplay:10.37,2013-04-28 09:10:00,
2013-04-28 19:15:00,70.5,62.6,30.02,ESE,118,1.0,3.0,76,0.00,CLR,,0.00,0.0,WeatherDisplay:10.37,2013-04-28 09:15:00,
2013-04-28 19:20:00,70.2,62.3,30.02,SE,126,1.0,2.0,76,0.00,CLR,,0.00,0.0,WeatherDisplay:10.37,2013-04-28 09:20:00,
2013-04-28 19:25:00,69.5,62.3,30.03,South,170,1.0,2.0,78,0.00,CLR,,0.00,0.0,WeatherDisplay:10.37,2013-04-28 09:25:00,
2013-04-28 19:30:00,69.3,62.1,30.03,SSW,201,1.0,2.0,78,0.00,CLR,,0.00,0.0,WeatherDisplay:10.37,2013-04-28 09:30:00,
2013-04-28 19:35:00,69.1,62.3,30.03,SW,214,0.0,2.0,79,0.00,CLR,,0.00,0.0,WeatherDisplay:10.37,2013-04-28 09:35:00,
2013-04-28 19:40:00,68.9,62.1,30.03,SW,215,1.0,2.0,79,0.00,CLR,,0.00,0.0,WeatherDisplay:10.37,2013-04-28 09:40:00,
2013-04-28 19:45:00,69.0,62.6,30.04,SSW,197,0.0,2.0,80,0.00,CLR,,0.00,0.0,WeatherDisplay:10.37,2013-04-28 09:45:00,
2013-04-28 19:50:00,68.7,62.7,30.04,South,180,1.0,3.0,81,0.00,CLR,,0.00,0.0,WeatherDisplay:10.37,2013-04-28 09:50:00,
2013-04-28 19:55:00,68.8,63.0,30.04,South,186,2.0,4.0,82,0.00,CLR,,0.00,0.0,WeatherDisplay:10.37,2013-04-28 09:55:00,
2013-04-28 20:00:00,68.9,62.8,30.04,SSW,194,1.0,2.0,81,0.00,CLR,,0.00,0.0,WeatherDisplay:10.37,2013-04-28 10:00:00,
2013-04-28 20:05:00,68.7,62.7,30.04,South,182,0.0,1.0,81,0.00,CLR,,0.00,0.0,WeatherDisplay:10.37,2013-04-28 10:05:00,
2013-04-28 20:10:00,68.5,62.5,30.04,SW,218,1.0,2.0,81,0.00,CLR,,0.00,0.0,WeatherDisplay:10.37,2013-04-28 10:10:00,
2013-04-28 20:15:00,68.5,63.2,30.04,SSW,207,2.0,5.0,83,0.00,CLR,,0.00,0.0,WeatherDisplay:10.37,2013-04-28 10:15:00,
2013-04-28 20:20:00,68.8,63.4,30.04,South,189,3.0,6.0,83,0.00,CLR,,0.00,0.0,WeatherDisplay:10.37,2013-04-28 10:20:00,
2013-04-28 20:25:00,69.4,64.0,30.04,South,181,3.0,6.0,83,0.00,CLR,,0.00,0.0,WeatherDisplay:10.37,2013-04-28 10:25:00,
2013-04-28 20:30:00,69.3,63.9,30.04,SSE,163,2.0,6.0,83,0.00,CLR,,0.00,0.0,WeatherDisplay:10.37,2013-04-28 10:30:00,
2013-04-28 20:35:00,68.9,63.5,30.05,SSE,152,1.0,2.0,83,0.00,CLR,,0.00,0.0,WeatherDisplay:10.37,2013-04-28 10:35:00,
2013-04-28 20:40:00,68.2,62.8,30.05,ESE,104,0.0,2.0,83,0.00,CLR,,0.00,0.0,WeatherDisplay:10.37,2013-04-28 10:40:00,
2013-04-28 20:45:00,67.6,62.9,30.04,East,90,0.0,0.0,85,0.00,CLR,,0.00,0.0,WeatherDisplay:10.37,2013-04-28 10:45:00,
2013-04-28 20:50:00,67.0,63.0,30.05,East,90,0.0,0.0,87,0.00,CLR,,0.00,0.0,WeatherDisplay:10.37,2013-04-28 10:50:00,
2013-04-28 20:55:00,66.6,62.9,30.05,ENE,72,0.0,0.0,88,0.00,CLR,,0.00,0.0,WeatherDisplay:10.37,2013-04-28 10:55:00,
2013-04-28 21:00:00,66.2,62.9,30.05,NNE,22,0.0,0.0,89,0.00,CLR,,0.00,0.0,WeatherDisplay:10.37,2013-04-28 11:00:00,
2013-04-28 21:05:00,66.2,63.2,30.04,North,359,0.0,0.0,90,0.00,CLR,,0.00,0.0,WeatherDisplay:10.37,2013-04-28 11:05:00,
2013-04-28 21:10:00,66.2,63.2,30.04,NW,323,0.0,0.0,90,0.00,CLR,,0.00,0.0,WeatherDisplay:10.37,2013-04-28 11:10:00,
2013-04-28 21:15:00,65.9,63.5,30.04,NNW,328,1.0,3.0,92,0.00,CLR,,0.00,0.0,WeatherDisplay:10.37,2013-04-28 11:15:00,
2013-04-28 21:20:00,65.7,63.6,30.04,North,360,0.0,2.0,93,0.00,CLR,,0.00,0.0,WeatherDisplay:10.37,2013-04-28 11:20:00,
2013-04-28 21:25:00,65.7,63.6,30.04,North,0,0.0,0.0,93,0.00,CLR,,0.00,0.0,WeatherDisplay:10.37,2013-04-28 11:25:00,
2013-04-28 21:30:00,65.5,63.7,30.04,North,0,0.0,0.0,94,0.00,CLR,,0.00,0.0,WeatherDisplay:10.37,2013-04-28 11:30:00,
2013-04-28 21:35:00,65.5,63.7,30.05,North,0,0.0,0.0,94,0.00,CLR,,0.00,0.0,WeatherDisplay:10.37,2013-04-28 11:35:00,
2013-04-28 21:40:00,65.1,63.3,30.04,North,1,0.0,2.0,94,0.00,CLR,,0.00,0.0,WeatherDisplay:10.37,2013-04-28 11:40:00,
2013-04-28 21:45:00,64.9,63.5,30.05,NNE,13,0.0,2.0,95,0.00,CLR,,0.00,0.0,WeatherDisplay:10.37,2013-04-28 11:45:00,
2013-04-28 21:50:00,64.8,63.3,30.05,North,11,0.0,0.0,95,0.00,CLR,,0.00,0.0,WeatherDisplay:10.37,2013-04-28 11:50:00,
2013-04-28 21:55:00,64.8,63.6,30.05,North,0,0.0,0.0,96,0.00,CLR,,0.00,0.0,WeatherDisplay:10.37,2013-04-28 11:55:00,
2013-04-28 22:00:00,64.9,63.8,30.04,North,0,0.0,0.0,96,0.00,CLR,,0.00,0.0,WeatherDisplay:10.37,2013-04-28 12:00:00,
2013-04-28 22:05:00,64.9,63.8,30.04,North,0,0.0,0.0,96,0.00,CLR,,0.00,0.0,WeatherDisplay:10.37,2013-04-28 12:05:00,
2013-04-28 22:10:00,64.9,63.8,30.04,North,0,0.0,0.0,96,0.00,CLR,,0.00,0.0,WeatherDisplay:10.37,2013-04-28 12:10:00,
2013-04-28 22:15:00,65.1,64.0,30.03,North,0,0.0,0.0,96,0.00,CLR,,0.00,0.0,WeatherDisplay:10.37,2013-04-28 12:15:00,
2013-04-28 22:20:00,65.3,64.1,30.04,North,0,0.0,0.0,96,0.00,CLR,,0.00,0.0,WeatherDisplay:10.37,2013-04-28 12:20:00,
2013-04-28 22:25:00,66.0,64.8,30.04,NW,308,0.0,0.0,96,0.00,CLR,,0.00,0.0,WeatherDisplay:10.37,2013-04-28 12:25:00,
2013-04-28 22:30:00,66.2,64.7,30.03,WNW,293,0.0,0.0,95,0.00,CLR,,0.00,0.0,WeatherDisplay:10.37,2013-04-28 12:30:00,
2013-04-28 22:35:00,66.2,64.4,30.04,NW,315,0.0,0.0,94,0.00,CLR,,0.00,0.0,WeatherDisplay:10.37,2013-04-28 12:35:00,
2013-04-28 22:40:00,66.4,64.6,30.04,NW,315,0.0,0.0,94,0.00,CLR,,0.00,0.0,WeatherDisplay:10.37,2013-04-28 12:40:00,
2013-04-28 22:45:00,66.6,65.1,30.03,West,263,0.0,0.0,95,0.00,CLR,,0.00,0.0,WeatherDisplay:10.37,2013-04-28 12:45:00,
2013-04-28 22:50:00,66.7,65.3,30.03,South,187,0.0,0.0,95,0.00,CLR,,0.00,0.0,WeatherDisplay:10.37,2013-04-28 12:50:00,
2013-04-28 22:55:00,67.1,65.6,30.04,South,180,0.0,0.0,95,0.00,CLR,,0.00,0.0,WeatherDisplay:10.37,2013-04-28 12:55:00,
2013-04-28 23:00:00,67.1,65.6,30.04,SSE,147,0.0,0.0,95,0.00,CLR,,0.00,0.0,WeatherDisplay:10.37,2013-04-28 13:00:00,
2013-04-28 23:05:00,66.9,65.4,30.04,NE,37,0.0,0.0,95,0.00,CLR,,0.00,0.0,WeatherDisplay:10.37,2013-04-28 13:05:00,
2013-04-28 23:10:00,66.9,65.4,30.04,NNE,23,0.0,0.0,95,0.00,CLR,,0.00,0.0,WeatherDisplay:10.37,2013-04-28 13:10:00,
2013-04-28 23:15:00,66.9,65.7,30.04,North,3,0.0,0.0,96,0.00,CLR,,0.00,0.0,WeatherDisplay:10.37,2013-04-28 13:15:00,
2013-04-28 23:20:00,66.9,65.7,30.04,NNW,340,0.0,0.0,96,0.01,RA,,0.01,0.0,WeatherDisplay:10.37,2013-04-28 13:20:00,
2013-04-28 23:25:00,66.7,65.9,30.04,NW,306,0.0,0.0,97,0.00,RA,,0.01,0.0,WeatherDisplay:10.37,2013-04-28 13:25:00,
2013-04-28 23:30:00,66.5,65.6,30.03,West,281,0.0,0.0,97,0.01,RA,,0.02,0.0,WeatherDisplay:10.37,2013-04-28 13:30:00,
2013-04-28 23:35:00,66.4,65.5,30.03,WSW,256,0.0,0.0,97,0.00,RA,,0.02,0.0,WeatherDisplay:10.37,2013-04-28 13:35:00,
2013-04-28 23:40:00,66.2,65.3,30.03,WSW,245,0.0,0.0,97,0.00,CLR,,0.02,0.0,WeatherDisplay:10.37,2013-04-28 13:40:00,
2013-04-28 23:45:00,66.3,65.7,30.03,West,278,0.0,0.0,98,0.00,CLR,,0.02,0.0,WeatherDisplay:10.37,2013-04-28 13:45:00,
2013-04-28 23:50:00,66.3,65.8,30.03,NW,310,0.0,0.0,98,0.00,CLR,,0.02,0.0,WeatherDisplay:10.37,2013-04-28 13:50:00,
2013-04-28 23:55:00,66.4,65.9,30.03,WNW,294,0.0,0.0,98,0.00,CLR,,0.02,0.0,WeatherDisplay:10.37,2013-04-28 13:55:00,